sensor_id;sensor_type;location;lat;lon;timestamp;P1;durP1;ratioP1;P2;durP2;ratioP2
4061;SDS011;2046;47.064;15.456;2022-10-22T00:01:26;2.88;;;2.58;;
4061;SDS011;2046;47.064;15.456;2022-10-22T00:03:53;4.38;;;3.38;;
4061;SDS011;2046;47.064;15.456;2022-10-22T00:06:20;3.20;;;2.90;;
4061;SDS011;2046;47.064;15.456;2022-10-22T00:08:47;5.07;;;3.17;;
4061;SDS011;2046;47.064;15.456;2022-10-22T00:11:15;4.60;;;3.08;;
4061;SDS011;2046;47.064;15.456;2022-10-22T00:13:41;4.13;;;3.10;;
4061;SDS011;2046;47.064;15.456;2022-10-22T00:16:08;3.72;;;2.85;;
4061;SDS011;2046;47.064;15.456;2022-10-22T00:18:35;3.53;;;2.97;;
4061;SDS011;2046;47.064;15.456;2022-10-22T00:21:02;3.70;;;3.03;;
4061;SDS011;2046;47.064;15.456;2022-10-22T00:23:28;4.72;;;3.05;;
4061;SDS011;2046;47.064;15.456;2022-10-22T00:25:55;4.13;;;3.15;;
4061;SDS011;2046;47.064;15.456;2022-10-22T00:28:22;5.03;;;3.00;;
4061;SDS011;2046;47.064;15.456;2022-10-22T00:30:58;5.38;;;3.55;;
4061;SDS011;2046;47.064;15.456;2022-10-22T00:33:25;3.55;;;2.83;;
4061;SDS011;2046;47.064;15.456;2022-10-22T00:35:52;4.47;;;3.00;;
4061;SDS011;2046;47.064;15.456;2022-10-22T00:38:19;3.75;;;3.10;;
4061;SDS011;2046;47.064;15.456;2022-10-22T00:40:45;3.13;;;2.80;;
4061;SDS011;2046;47.064;15.456;2022-10-22T00:43:13;5.85;;;3.00;;
4061;SDS011;2046;47.064;15.456;2022-10-22T00:45:40;4.03;;;2.90;;
4061;SDS011;2046;47.064;15.456;2022-10-22T00:48:10;3.17;;;2.83;;
4061;SDS011;2046;47.064;15.456;2022-10-22T00:53:15;3.55;;;3.03;;
4061;SDS011;2046;47.064;15.456;2022-10-22T00:55:43;3.10;;;2.80;;
4061;SDS011;2046;47.064;15.456;2022-10-22T00:58:10;3.50;;;2.88;;
4061;SDS011;2046;47.064;15.456;2022-10-22T01:00:37;3.78;;;2.90;;
4061;SDS011;2046;47.064;15.456;2022-10-22T01:03:04;3.92;;;3.20;;
4061;SDS011;2046;47.064;15.456;2022-10-22T01:05:32;3.90;;;2.92;;
4061;SDS011;2046;47.064;15.456;2022-10-22T01:08:04;3.13;;;2.70;;
4061;SDS011;2046;47.064;15.456;2022-10-22T01:13:21;3.88;;;2.70;;
4061;SDS011;2046;47.064;15.456;2022-10-22T01:15:48;4.07;;;2.72;;
4061;SDS011;2046;47.064;15.456;2022-10-22T01:26:11;2.85;;;1.92;;
4061;SDS011;2046;47.064;15.456;2022-10-22T01:31:08;3.60;;;2.78;;
4061;SDS011;2046;47.064;15.456;2022-10-22T01:33:35;2.97;;;2.53;;
4061;SDS011;2046;47.064;15.456;2022-10-22T01:36:02;4.22;;;3.15;;
4061;SDS011;2046;47.064;15.456;2022-10-22T01:38:29;3.17;;;2.83;;
4061;SDS011;2046;47.064;15.456;2022-10-22T01:40:56;3.35;;;2.67;;
4061;SDS011;2046;47.064;15.456;2022-10-22T01:43:23;4.10;;;3.08;;
4061;SDS011;2046;47.064;15.456;2022-10-22T01:45:55;3.92;;;2.70;;
4061;SDS011;2046;47.064;15.456;2022-10-22T02:06:45;2.90;;;2.47;;
4061;SDS011;2046;47.064;15.456;2022-10-22T02:09:13;3.20;;;2.90;;
4061;SDS011;2046;47.064;15.456;2022-10-22T02:11:41;4.20;;;3.08;;
4061;SDS011;2046;47.064;15.456;2022-10-22T02:14:08;3.95;;;3.00;;
4061;SDS011;2046;47.064;15.456;2022-10-22T02:16:37;3.13;;;2.83;;
4061;SDS011;2046;47.064;15.456;2022-10-22T02:19:06;3.63;;;2.78;;
4061;SDS011;2046;47.064;15.456;2022-10-22T02:21:35;3.20;;;2.90;;
4061;SDS011;2046;47.064;15.456;2022-10-22T02:24:02;4.65;;;2.80;;
4061;SDS011;2046;47.064;15.456;2022-10-22T02:26:39;3.80;;;2.65;;
4061;SDS011;2046;47.064;15.456;2022-10-22T02:29:18;4.82;;;2.90;;
4061;SDS011;2046;47.064;15.456;2022-10-22T02:31:45;3.13;;;2.60;;
4061;SDS011;2046;47.064;15.456;2022-10-22T02:34:14;3.83;;;2.92;;
4061;SDS011;2046;47.064;15.456;2022-10-22T02:36:42;3.33;;;2.90;;
4061;SDS011;2046;47.064;15.456;2022-10-22T02:39:14;4.90;;;2.80;;
4061;SDS011;2046;47.064;15.456;2022-10-22T02:41:46;3.38;;;2.90;;
4061;SDS011;2046;47.064;15.456;2022-10-22T02:44:13;4.00;;;3.08;;
4061;SDS011;2046;47.064;15.456;2022-10-22T02:46:40;3.70;;;2.80;;
4061;SDS011;2046;47.064;15.456;2022-10-22T02:49:08;4.78;;;2.83;;
4061;SDS011;2046;47.064;15.456;2022-10-22T02:51:35;3.15;;;2.83;;
4061;SDS011;2046;47.064;15.456;2022-10-22T02:54:01;3.85;;;3.03;;
4061;SDS011;2046;47.064;15.456;2022-10-22T02:56:28;3.47;;;2.75;;
4061;SDS011;2046;47.064;15.456;2022-10-22T02:58:54;3.33;;;3.03;;
4061;SDS011;2046;47.064;15.456;2022-10-22T03:01:21;3.80;;;2.72;;
4061;SDS011;2046;47.064;15.456;2022-10-22T03:03:48;3.90;;;2.85;;
4061;SDS011;2046;47.064;15.456;2022-10-22T03:06:14;3.58;;;2.83;;
4061;SDS011;2046;47.064;15.456;2022-10-22T03:08:41;2.78;;;2.50;;
4061;SDS011;2046;47.064;15.456;2022-10-22T03:11:08;4.03;;;2.90;;
4061;SDS011;2046;47.064;15.456;2022-10-22T03:13:34;4.10;;;3.22;;
4061;SDS011;2046;47.064;15.456;2022-10-22T03:16:01;4.60;;;3.33;;
4061;SDS011;2046;47.064;15.456;2022-10-22T03:18:27;3.40;;;2.65;;
4061;SDS011;2046;47.064;15.456;2022-10-22T03:21:00;3.63;;;2.65;;
4061;SDS011;2046;47.064;15.456;2022-10-22T03:23:29;3.35;;;2.60;;
4061;SDS011;2046;47.064;15.456;2022-10-22T03:25:57;3.38;;;2.85;;
4061;SDS011;2046;47.064;15.456;2022-10-22T03:28:29;3.35;;;2.83;;
4061;SDS011;2046;47.064;15.456;2022-10-22T03:30:55;4.35;;;2.88;;
4061;SDS011;2046;47.064;15.456;2022-10-22T03:33:22;4.55;;;2.47;;
4061;SDS011;2046;47.064;15.456;2022-10-22T03:35:48;3.33;;;2.60;;
4061;SDS011;2046;47.064;15.456;2022-10-22T03:38:15;3.25;;;2.95;;
4061;SDS011;2046;47.064;15.456;2022-10-22T03:40:41;3.10;;;2.60;;
4061;SDS011;2046;47.064;15.456;2022-10-22T03:43:09;3.85;;;2.88;;
4061;SDS011;2046;47.064;15.456;2022-10-22T03:45:36;3.75;;;2.97;;
4061;SDS011;2046;47.064;15.456;2022-10-22T03:48:03;3.13;;;2.80;;
4061;SDS011;2046;47.064;15.456;2022-10-22T03:50:30;4.07;;;2.72;;
4061;SDS011;2046;47.064;15.456;2022-10-22T03:52:56;3.60;;;2.85;;
4061;SDS011;2046;47.064;15.456;2022-10-22T03:55:23;4.15;;;2.85;;
4061;SDS011;2046;47.064;15.456;2022-10-22T03:57:50;3.63;;;2.88;;
4061;SDS011;2046;47.064;15.456;2022-10-22T04:00:16;4.70;;;3.10;;
4061;SDS011;2046;47.064;15.456;2022-10-22T04:02:43;3.00;;;2.47;;
4061;SDS011;2046;47.064;15.456;2022-10-22T04:05:09;3.95;;;2.90;;
4061;SDS011;2046;47.064;15.456;2022-10-22T04:07:36;3.60;;;2.80;;
4061;SDS011;2046;47.064;15.456;2022-10-22T04:10:03;5.18;;;2.60;;
4061;SDS011;2046;47.064;15.456;2022-10-22T04:12:29;3.10;;;2.70;;
4061;SDS011;2046;47.064;15.456;2022-10-22T04:14:56;4.95;;;2.92;;
4061;SDS011;2046;47.064;15.456;2022-10-22T04:17:22;6.03;;;2.75;;
4061;SDS011;2046;47.064;15.456;2022-10-22T04:19:49;3.70;;;2.75;;
4061;SDS011;2046;47.064;15.456;2022-10-22T04:22:15;3.67;;;3.03;;
4061;SDS011;2046;47.064;15.456;2022-10-22T04:24:42;3.67;;;3.08;;
4061;SDS011;2046;47.064;15.456;2022-10-22T04:27:08;3.13;;;2.70;;
4061;SDS011;2046;47.064;15.456;2022-10-22T04:29:35;3.60;;;3.08;;
4061;SDS011;2046;47.064;15.456;2022-10-22T04:32:01;3.97;;;2.97;;
4061;SDS011;2046;47.064;15.456;2022-10-22T04:34:28;4.07;;;2.60;;
4061;SDS011;2046;47.064;15.456;2022-10-22T04:36:54;3.20;;;2.67;;
4061;SDS011;2046;47.064;15.456;2022-10-22T04:39:21;4.05;;;2.83;;
4061;SDS011;2046;47.064;15.456;2022-10-22T04:41:48;3.72;;;2.90;;
4061;SDS011;2046;47.064;15.456;2022-10-22T04:44:14;4.15;;;3.00;;
4061;SDS011;2046;47.064;15.456;2022-10-22T04:46:43;2.92;;;2.63;;
4061;SDS011;2046;47.064;15.456;2022-10-22T04:49:09;3.65;;;3.03;;
4061;SDS011;2046;47.064;15.456;2022-10-22T04:51:36;3.60;;;3.00;;
4061;SDS011;2046;47.064;15.456;2022-10-22T04:54:03;3.30;;;3.00;;
4061;SDS011;2046;47.064;15.456;2022-10-22T04:56:30;6.15;;;3.10;;
4061;SDS011;2046;47.064;15.456;2022-10-22T04:58:57;3.72;;;3.05;;
4061;SDS011;2046;47.064;15.456;2022-10-22T05:01:25;3.97;;;3.00;;
4061;SDS011;2046;47.064;15.456;2022-10-22T05:03:52;4.60;;;3.15;;
4061;SDS011;2046;47.064;15.456;2022-10-22T05:06:19;4.32;;;2.95;;
4061;SDS011;2046;47.064;15.456;2022-10-22T05:08:46;3.42;;;3.05;;
4061;SDS011;2046;47.064;15.456;2022-10-22T05:11:14;6.95;;;3.53;;
4061;SDS011;2046;47.064;15.456;2022-10-22T05:13:41;4.30;;;3.35;;
4061;SDS011;2046;47.064;15.456;2022-10-22T05:16:07;3.58;;;3.22;;
4061;SDS011;2046;47.064;15.456;2022-10-22T05:18:38;4.07;;;3.00;;
4061;SDS011;2046;47.064;15.456;2022-10-22T05:21:08;5.93;;;3.67;;
4061;SDS011;2046;47.064;15.456;2022-10-22T05:23:35;4.38;;;3.38;;
4061;SDS011;2046;47.064;15.456;2022-10-22T05:26:02;4.38;;;3.25;;
4061;SDS011;2046;47.064;15.456;2022-10-22T05:28:29;4.35;;;3.17;;
4061;SDS011;2046;47.064;15.456;2022-10-22T05:30:56;4.78;;;3.30;;
4061;SDS011;2046;47.064;15.456;2022-10-22T05:33:23;3.70;;;3.08;;
4061;SDS011;2046;47.064;15.456;2022-10-22T05:35:50;3.83;;;3.42;;
4061;SDS011;2046;47.064;15.456;2022-10-22T05:38:16;6.28;;;3.42;;
4061;SDS011;2046;47.064;15.456;2022-10-22T05:40:43;4.07;;;3.42;;
4061;SDS011;2046;47.064;15.456;2022-10-22T05:43:10;4.43;;;3.40;;
4061;SDS011;2046;47.064;15.456;2022-10-22T05:45:40;4.07;;;2.95;;
4061;SDS011;2046;47.064;15.456;2022-10-22T05:48:07;5.47;;;3.65;;
4061;SDS011;2046;47.064;15.456;2022-10-22T05:50:35;5.45;;;3.22;;
4061;SDS011;2046;47.064;15.456;2022-10-22T05:53:02;5.65;;;3.30;;
4061;SDS011;2046;47.064;15.456;2022-10-22T05:55:29;5.82;;;3.90;;
4061;SDS011;2046;47.064;15.456;2022-10-22T05:57:55;6.55;;;3.47;;
4061;SDS011;2046;47.064;15.456;2022-10-22T06:00:22;5.55;;;3.70;;
4061;SDS011;2046;47.064;15.456;2022-10-22T06:02:49;3.60;;;3.20;;
4061;SDS011;2046;47.064;15.456;2022-10-22T06:05:16;4.70;;;3.20;;
4061;SDS011;2046;47.064;15.456;2022-10-22T06:07:42;4.75;;;3.83;;
4061;SDS011;2046;47.064;15.456;2022-10-22T06:10:18;5.47;;;3.67;;
4061;SDS011;2046;47.064;15.456;2022-10-22T06:12:46;4.20;;;3.28;;
4061;SDS011;2046;47.064;15.456;2022-10-22T06:15:13;5.13;;;3.67;;
4061;SDS011;2046;47.064;15.456;2022-10-22T06:17:42;5.72;;;3.75;;
4061;SDS011;2046;47.064;15.456;2022-10-22T06:20:09;4.97;;;3.25;;
4061;SDS011;2046;47.064;15.456;2022-10-22T06:22:36;5.53;;;3.53;;
4061;SDS011;2046;47.064;15.456;2022-10-22T06:25:03;4.78;;;3.45;;
4061;SDS011;2046;47.064;15.456;2022-10-22T06:27:29;6.07;;;3.60;;
4061;SDS011;2046;47.064;15.456;2022-10-22T06:29:56;4.75;;;3.60;;
4061;SDS011;2046;47.064;15.456;2022-10-22T06:32:22;5.32;;;3.65;;
4061;SDS011;2046;47.064;15.456;2022-10-22T06:34:49;6.00;;;3.55;;
4061;SDS011;2046;47.064;15.456;2022-10-22T06:37:15;6.10;;;3.88;;
4061;SDS011;2046;47.064;15.456;2022-10-22T06:39:42;6.35;;;3.92;;
4061;SDS011;2046;47.064;15.456;2022-10-22T06:42:09;7.85;;;3.70;;
4061;SDS011;2046;47.064;15.456;2022-10-22T06:44:37;8.93;;;4.18;;
4061;SDS011;2046;47.064;15.456;2022-10-22T06:47:03;7.22;;;4.03;;
4061;SDS011;2046;47.064;15.456;2022-10-22T06:49:30;8.23;;;4.20;;
4061;SDS011;2046;47.064;15.456;2022-10-22T06:51:56;5.35;;;4.10;;
4061;SDS011;2046;47.064;15.456;2022-10-22T06:54:23;7.00;;;3.88;;
4061;SDS011;2046;47.064;15.456;2022-10-22T06:56:49;5.55;;;3.63;;
4061;SDS011;2046;47.064;15.456;2022-10-22T06:59:16;6.43;;;4.25;;
4061;SDS011;2046;47.064;15.456;2022-10-22T07:01:42;4.68;;;3.53;;
4061;SDS011;2046;47.064;15.456;2022-10-22T07:04:09;6.55;;;3.40;;
4061;SDS011;2046;47.064;15.456;2022-10-22T07:06:36;5.68;;;4.00;;
4061;SDS011;2046;47.064;15.456;2022-10-22T07:09:03;8.52;;;4.07;;
4061;SDS011;2046;47.064;15.456;2022-10-22T07:11:30;6.45;;;3.72;;
4061;SDS011;2046;47.064;15.456;2022-10-22T07:13:58;6.07;;;4.72;;
4061;SDS011;2046;47.064;15.456;2022-10-22T07:16:25;4.68;;;3.42;;
4061;SDS011;2046;47.064;15.456;2022-10-22T07:18:57;6.25;;;3.83;;
4061;SDS011;2046;47.064;15.456;2022-10-22T07:21:24;6.93;;;3.60;;
4061;SDS011;2046;47.064;15.456;2022-10-22T07:23:51;8.07;;;4.38;;
4061;SDS011;2046;47.064;15.456;2022-10-22T07:26:17;7.43;;;3.70;;
4061;SDS011;2046;47.064;15.456;2022-10-22T07:28:46;4.93;;;3.72;;
4061;SDS011;2046;47.064;15.456;2022-10-22T07:31:13;9.40;;;4.00;;
4061;SDS011;2046;47.064;15.456;2022-10-22T07:33:40;5.45;;;3.90;;
4061;SDS011;2046;47.064;15.456;2022-10-22T07:36:07;5.93;;;3.53;;
4061;SDS011;2046;47.064;15.456;2022-10-22T07:38:35;5.20;;;3.53;;
4061;SDS011;2046;47.064;15.456;2022-10-22T07:41:02;4.53;;;2.55;;
4061;SDS011;2046;47.064;15.456;2022-10-22T07:43:29;6.72;;;3.70;;
4061;SDS011;2046;47.064;15.456;2022-10-22T07:45:55;5.20;;;3.45;;
4061;SDS011;2046;47.064;15.456;2022-10-22T07:48:22;5.85;;;3.47;;
4061;SDS011;2046;47.064;15.456;2022-10-22T07:50:49;4.55;;;3.53;;
4061;SDS011;2046;47.064;15.456;2022-10-22T07:53:16;4.72;;;3.53;;
4061;SDS011;2046;47.064;15.456;2022-10-22T07:55:43;5.78;;;3.60;;
4061;SDS011;2046;47.064;15.456;2022-10-22T07:58:09;6.40;;;3.63;;
4061;SDS011;2046;47.064;15.456;2022-10-22T08:00:35;4.95;;;3.58;;
4061;SDS011;2046;47.064;15.456;2022-10-22T08:03:03;4.72;;;3.45;;
4061;SDS011;2046;47.064;15.456;2022-10-22T08:05:29;7.40;;;4.00;;
4061;SDS011;2046;47.064;15.456;2022-10-22T08:07:55;4.63;;;3.55;;
4061;SDS011;2046;47.064;15.456;2022-10-22T08:10:22;5.70;;;3.80;;
4061;SDS011;2046;47.064;15.456;2022-10-22T08:12:48;6.15;;;3.45;;
4061;SDS011;2046;47.064;15.456;2022-10-22T08:15:15;7.88;;;3.65;;
4061;SDS011;2046;47.064;15.456;2022-10-22T08:17:42;5.05;;;3.92;;
4061;SDS011;2046;47.064;15.456;2022-10-22T08:20:09;6.15;;;3.60;;
4061;SDS011;2046;47.064;15.456;2022-10-22T08:22:36;7.35;;;3.80;;
4061;SDS011;2046;47.064;15.456;2022-10-22T08:25:02;8.60;;;3.40;;
4061;SDS011;2046;47.064;15.456;2022-10-22T08:27:29;5.28;;;3.80;;
4061;SDS011;2046;47.064;15.456;2022-10-22T08:29:55;4.93;;;3.60;;
4061;SDS011;2046;47.064;15.456;2022-10-22T08:32:22;5.32;;;3.58;;
4061;SDS011;2046;47.064;15.456;2022-10-22T08:34:48;4.28;;;3.40;;
4061;SDS011;2046;47.064;15.456;2022-10-22T08:37:15;4.75;;;3.40;;
4061;SDS011;2046;47.064;15.456;2022-10-22T08:39:43;6.47;;;3.33;;
4061;SDS011;2046;47.064;15.456;2022-10-22T08:45:14;18.00;;;12.15;;
4061;SDS011;2046;47.064;15.456;2022-10-22T08:50:11;11.43;;;7.75;;
4061;SDS011;2046;47.064;15.456;2022-10-22T08:52:41;11.18;;;5.95;;
4061;SDS011;2046;47.064;15.456;2022-10-22T08:55:12;10.02;;;7.28;;
4061;SDS011;2046;47.064;15.456;2022-10-22T09:00:21;17.35;;;7.43;;
4061;SDS011;2046;47.064;15.456;2022-10-22T09:05:38;12.38;;;9.00;;
4061;SDS011;2046;47.064;15.456;2022-10-22T09:08:12;10.27;;;8.90;;
4061;SDS011;2046;47.064;15.456;2022-10-22T09:10:42;13.32;;;9.68;;
4061;SDS011;2046;47.064;15.456;2022-10-22T09:13:11;10.23;;;8.68;;
4061;SDS011;2046;47.064;15.456;2022-10-22T09:15:39;7.53;;;5.75;;
4061;SDS011;2046;47.064;15.456;2022-10-22T09:18:14;6.65;;;4.63;;
4061;SDS011;2046;47.064;15.456;2022-10-22T09:20:55;5.38;;;4.15;;
4061;SDS011;2046;47.064;15.456;2022-10-22T09:25:50;5.03;;;3.78;;
4061;SDS011;2046;47.064;15.456;2022-10-22T09:28:17;4.05;;;3.55;;
4061;SDS011;2046;47.064;15.456;2022-10-22T09:30:44;5.75;;;3.70;;
4061;SDS011;2046;47.064;15.456;2022-10-22T09:33:20;4.18;;;3.70;;
4061;SDS011;2046;47.064;15.456;2022-10-22T09:38:18;6.45;;;3.80;;
4061;SDS011;2046;47.064;15.456;2022-10-22T09:40:49;4.22;;;3.65;;
4061;SDS011;2046;47.064;15.456;2022-10-22T09:43:16;6.90;;;3.97;;
4061;SDS011;2046;47.064;15.456;2022-10-22T09:45:43;7.90;;;3.78;;
4061;SDS011;2046;47.064;15.456;2022-10-22T09:51:14;7.65;;;3.60;;
4061;SDS011;2046;47.064;15.456;2022-10-22T09:53:42;7.28;;;3.70;;
4061;SDS011;2046;47.064;15.456;2022-10-22T09:56:55;7.07;;;3.50;;
4061;SDS011;2046;47.064;15.456;2022-10-22T09:58:56;3.65;;;3.25;;
4061;SDS011;2046;47.064;15.456;2022-10-22T10:03:49;6.50;;;3.88;;
4061;SDS011;2046;47.064;15.456;2022-10-22T10:06:16;13.48;;;4.80;;
4061;SDS011;2046;47.064;15.456;2022-10-22T10:08:43;5.03;;;3.85;;
4061;SDS011;2046;47.064;15.456;2022-10-22T10:11:33;5.95;;;4.60;;
4061;SDS011;2046;47.064;15.456;2022-10-22T10:14:06;7.57;;;4.57;;
4061;SDS011;2046;47.064;15.456;2022-10-22T10:24:25;10.93;;;5.00;;
4061;SDS011;2046;47.064;15.456;2022-10-22T10:43:17;7.97;;;3.88;;
4061;SDS011;2046;47.064;15.456;2022-10-22T10:51:19;9.50;;;4.05;;
4061;SDS011;2046;47.064;15.456;2022-10-22T11:01:53;8.85;;;3.95;;
4061;SDS011;2046;47.064;15.456;2022-10-22T11:04:40;5.40;;;3.97;;
4061;SDS011;2046;47.064;15.456;2022-10-22T11:07:12;10.23;;;3.92;;
4061;SDS011;2046;47.064;15.456;2022-10-22T11:10:04;5.22;;;3.20;;
4061;SDS011;2046;47.064;15.456;2022-10-22T11:12:35;15.65;;;4.00;;
4061;SDS011;2046;47.064;15.456;2022-10-22T11:15:23;8.80;;;3.55;;
4061;SDS011;2046;47.064;15.456;2022-10-22T11:17:50;6.40;;;3.22;;
4061;SDS011;2046;47.064;15.456;2022-10-22T11:23:23;64.88;;;10.13;;
4061;SDS011;2046;47.064;15.456;2022-10-22T11:25:52;9.60;;;4.18;;
4061;SDS011;2046;47.064;15.456;2022-10-22T11:28:22;12.05;;;4.10;;
4061;SDS011;2046;47.064;15.456;2022-10-22T11:30:56;5.50;;;3.58;;
4061;SDS011;2046;47.064;15.456;2022-10-22T11:33:23;11.25;;;4.38;;
4061;SDS011;2046;47.064;15.456;2022-10-22T11:35:52;6.30;;;3.20;;
4061;SDS011;2046;47.064;15.456;2022-10-22T11:38:22;9.50;;;3.60;;
4061;SDS011;2046;47.064;15.456;2022-10-22T11:40:58;8.75;;;3.03;;
4061;SDS011;2046;47.064;15.456;2022-10-22T11:43:32;4.57;;;2.97;;
4061;SDS011;2046;47.064;15.456;2022-10-22T11:46:08;5.25;;;3.42;;
4061;SDS011;2046;47.064;15.456;2022-10-22T11:51:49;6.75;;;3.35;;
4061;SDS011;2046;47.064;15.456;2022-10-22T11:59:43;3.30;;;2.85;;
4061;SDS011;2046;47.064;15.456;2022-10-22T12:02:22;7.75;;;3.15;;
4061;SDS011;2046;47.064;15.456;2022-10-22T12:04:48;9.63;;;3.40;;
4061;SDS011;2046;47.064;15.456;2022-10-22T12:07:34;5.65;;;2.83;;
4061;SDS011;2046;47.064;15.456;2022-10-22T12:10:48;8.05;;;3.08;;
4061;SDS011;2046;47.064;15.456;2022-10-22T12:13:25;4.00;;;2.88;;
4061;SDS011;2046;47.064;15.456;2022-10-22T12:15:53;4.20;;;3.20;;
4061;SDS011;2046;47.064;15.456;2022-10-22T12:18:25;7.68;;;2.88;;
4061;SDS011;2046;47.064;15.456;2022-10-22T12:20:52;6.53;;;2.70;;
4061;SDS011;2046;47.064;15.456;2022-10-22T12:23:20;4.53;;;3.05;;
4061;SDS011;2046;47.064;15.456;2022-10-22T12:25:49;3.95;;;2.60;;
4061;SDS011;2046;47.064;15.456;2022-10-22T12:28:16;4.45;;;2.78;;
4061;SDS011;2046;47.064;15.456;2022-10-22T12:30:44;2.90;;;2.60;;
4061;SDS011;2046;47.064;15.456;2022-10-22T12:33:22;4.28;;;2.58;;
4061;SDS011;2046;47.064;15.456;2022-10-22T12:35:49;4.15;;;2.60;;
4061;SDS011;2046;47.064;15.456;2022-10-22T12:38:21;5.28;;;2.72;;
4061;SDS011;2046;47.064;15.456;2022-10-22T12:40:49;4.45;;;3.00;;
4061;SDS011;2046;47.064;15.456;2022-10-22T12:43:23;5.25;;;2.92;;
4061;SDS011;2046;47.064;15.456;2022-10-22T12:45:50;5.65;;;2.72;;
4061;SDS011;2046;47.064;15.456;2022-10-22T12:50:44;3.45;;;2.40;;
4061;SDS011;2046;47.064;15.456;2022-10-22T12:53:13;3.83;;;2.28;;
4061;SDS011;2046;47.064;15.456;2022-10-22T12:55:40;4.90;;;2.67;;
4061;SDS011;2046;47.064;15.456;2022-10-22T12:58:07;3.55;;;2.13;;
4061;SDS011;2046;47.064;15.456;2022-10-22T13:00:34;4.72;;;2.53;;
4061;SDS011;2046;47.064;15.456;2022-10-22T13:03:02;2.63;;;2.42;;
4061;SDS011;2046;47.064;15.456;2022-10-22T13:05:30;2.92;;;2.35;;
4061;SDS011;2046;47.064;15.456;2022-10-22T13:08:03;4.07;;;2.40;;
4061;SDS011;2046;47.064;15.456;2022-10-22T13:10:33;3.75;;;2.42;;
4061;SDS011;2046;47.064;15.456;2022-10-22T13:13:01;3.80;;;2.80;;
4061;SDS011;2046;47.064;15.456;2022-10-22T13:20:28;3.45;;;2.22;;
4061;SDS011;2046;47.064;15.456;2022-10-22T13:22:59;3.42;;;2.78;;
4061;SDS011;2046;47.064;15.456;2022-10-22T13:25:30;2.50;;;2.30;;
4061;SDS011;2046;47.064;15.456;2022-10-22T13:28:00;3.83;;;2.22;;
4061;SDS011;2046;47.064;15.456;2022-10-22T13:30:28;2.92;;;2.15;;
4061;SDS011;2046;47.064;15.456;2022-10-22T13:32:56;4.47;;;2.53;;
4061;SDS011;2046;47.064;15.456;2022-10-22T13:35:25;5.75;;;2.65;;
4061;SDS011;2046;47.064;15.456;2022-10-22T13:37:52;3.63;;;2.38;;
4061;SDS011;2046;47.064;15.456;2022-10-22T13:40:18;4.18;;;2.00;;
4061;SDS011;2046;47.064;15.456;2022-10-22T13:42:45;8.05;;;2.45;;
4061;SDS011;2046;47.064;15.456;2022-10-22T13:45:12;6.40;;;2.40;;
4061;SDS011;2046;47.064;15.456;2022-10-22T13:47:39;6.05;;;2.05;;
4061;SDS011;2046;47.064;15.456;2022-10-22T13:50:10;4.43;;;2.33;;
4061;SDS011;2046;47.064;15.456;2022-10-22T13:52:39;4.28;;;2.45;;
4061;SDS011;2046;47.064;15.456;2022-10-22T13:57:45;2.90;;;2.40;;
4061;SDS011;2046;47.064;15.456;2022-10-22T14:00:16;4.88;;;2.35;;
4061;SDS011;2046;47.064;15.456;2022-10-22T14:02:43;2.63;;;2.30;;
4061;SDS011;2046;47.064;15.456;2022-10-22T14:05:11;2.00;;;1.90;;
4061;SDS011;2046;47.064;15.456;2022-10-22T14:07:39;2.88;;;2.15;;
4061;SDS011;2046;47.064;15.456;2022-10-22T14:10:19;2.78;;;1.92;;
4061;SDS011;2046;47.064;15.456;2022-10-22T14:12:46;2.20;;;2.00;;
4061;SDS011;2046;47.064;15.456;2022-10-22T14:15:19;3.92;;;2.50;;
4061;SDS011;2046;47.064;15.456;2022-10-22T14:17:47;2.47;;;2.00;;
4061;SDS011;2046;47.064;15.456;2022-10-22T14:20:15;2.30;;;2.00;;
4061;SDS011;2046;47.064;15.456;2022-10-22T14:22:44;2.15;;;1.85;;
4061;SDS011;2046;47.064;15.456;2022-10-22T14:25:13;2.55;;;2.20;;
4061;SDS011;2046;47.064;15.456;2022-10-22T14:27:39;3.47;;;1.83;;
4061;SDS011;2046;47.064;15.456;2022-10-22T14:30:06;4.28;;;2.40;;
4061;SDS011;2046;47.064;15.456;2022-10-22T14:32:33;5.22;;;2.50;;
4061;SDS011;2046;47.064;15.456;2022-10-22T14:35:00;6.95;;;2.95;;
4061;SDS011;2046;47.064;15.456;2022-10-22T14:37:26;5.60;;;2.78;;
4061;SDS011;2046;47.064;15.456;2022-10-22T14:39:53;3.65;;;2.70;;
4061;SDS011;2046;47.064;15.456;2022-10-22T14:42:27;2.60;;;2.38;;
4061;SDS011;2046;47.064;15.456;2022-10-22T14:44:54;5.13;;;2.15;;
4061;SDS011;2046;47.064;15.456;2022-10-22T14:47:21;8.33;;;4.63;;
4061;SDS011;2046;47.064;15.456;2022-10-22T14:49:47;6.57;;;2.10;;
4061;SDS011;2046;47.064;15.456;2022-10-22T14:52:14;1.88;;;1.63;;
4061;SDS011;2046;47.064;15.456;2022-10-22T14:54:40;1.40;;;1.30;;
4061;SDS011;2046;47.064;15.456;2022-10-22T14:57:06;1.88;;;1.70;;
4061;SDS011;2046;47.064;15.456;2022-10-22T14:59:34;2.38;;;2.00;;
4061;SDS011;2046;47.064;15.456;2022-10-22T15:02:00;1.58;;;1.48;;
4061;SDS011;2046;47.064;15.456;2022-10-22T15:04:27;4.78;;;1.80;;
4061;SDS011;2046;47.064;15.456;2022-10-22T15:06:55;2.80;;;1.52;;
4061;SDS011;2046;47.064;15.456;2022-10-22T15:09:22;1.55;;;1.45;;
4061;SDS011;2046;47.064;15.456;2022-10-22T15:11:49;4.35;;;2.28;;
4061;SDS011;2046;47.064;15.456;2022-10-22T15:14:15;4.28;;;2.92;;
4061;SDS011;2046;47.064;15.456;2022-10-22T15:16:42;6.03;;;1.42;;
4061;SDS011;2046;47.064;15.456;2022-10-22T15:19:08;4.32;;;2.00;;
4061;SDS011;2046;47.064;15.456;2022-10-22T15:21:36;1.80;;;1.70;;
4061;SDS011;2046;47.064;15.456;2022-10-22T15:24:02;3.97;;;1.50;;
4061;SDS011;2046;47.064;15.456;2022-10-22T15:26:30;3.90;;;1.80;;
4061;SDS011;2046;47.064;15.456;2022-10-22T15:28:56;2.90;;;1.60;;
4061;SDS011;2046;47.064;15.456;2022-10-22T15:31:43;3.83;;;1.42;;
4061;SDS011;2046;47.064;15.456;2022-10-22T15:34:10;2.35;;;1.35;;
4061;SDS011;2046;47.064;15.456;2022-10-22T15:36:37;3.03;;;1.38;;
4061;SDS011;2046;47.064;15.456;2022-10-22T15:39:07;2.75;;;1.42;;
4061;SDS011;2046;47.064;15.456;2022-10-22T15:41:35;1.63;;;1.35;;
4061;SDS011;2046;47.064;15.456;2022-10-22T15:44:02;1.92;;;1.52;;
4061;SDS011;2046;47.064;15.456;2022-10-22T15:46:31;3.10;;;1.50;;
4061;SDS011;2046;47.064;15.456;2022-10-22T15:49:00;3.22;;;1.52;;
4061;SDS011;2046;47.064;15.456;2022-10-22T15:51:27;1.17;;;1.00;;
4061;SDS011;2046;47.064;15.456;2022-10-22T15:53:54;1.90;;;1.42;;
4061;SDS011;2046;47.064;15.456;2022-10-22T15:56:21;1.23;;;1.10;;
4061;SDS011;2046;47.064;15.456;2022-10-22T15:58:51;10.73;;;1.50;;
4061;SDS011;2046;47.064;15.456;2022-10-22T16:01:18;3.22;;;1.33;;
4061;SDS011;2046;47.064;15.456;2022-10-22T16:03:44;1.48;;;1.38;;
4061;SDS011;2046;47.064;15.456;2022-10-22T16:06:11;2.60;;;1.45;;
4061;SDS011;2046;47.064;15.456;2022-10-22T16:08:38;1.20;;;1.10;;
4061;SDS011;2046;47.064;15.456;2022-10-22T16:11:04;3.40;;;1.30;;
4061;SDS011;2046;47.064;15.456;2022-10-22T16:13:31;1.20;;;1.10;;
4061;SDS011;2046;47.064;15.456;2022-10-22T16:15:57;2.13;;;1.20;;
4061;SDS011;2046;47.064;15.456;2022-10-22T16:18:24;1.92;;;1.20;;
4061;SDS011;2046;47.064;15.456;2022-10-22T16:20:50;6.53;;;1.10;;
4061;SDS011;2046;47.064;15.456;2022-10-22T16:23:17;2.53;;;1.15;;
4061;SDS011;2046;47.064;15.456;2022-10-22T16:25:44;0.80;;;0.80;;
4061;SDS011;2046;47.064;15.456;2022-10-22T16:28:11;1.38;;;1.00;;
4061;SDS011;2046;47.064;15.456;2022-10-22T16:30:38;1.30;;;1.20;;
4061;SDS011;2046;47.064;15.456;2022-10-22T16:33:05;2.92;;;1.02;;
4061;SDS011;2046;47.064;15.456;2022-10-22T16:35:32;1.13;;;1.00;;
4061;SDS011;2046;47.064;15.456;2022-10-22T16:37:59;2.15;;;1.10;;
4061;SDS011;2046;47.064;15.456;2022-10-22T16:40:25;1.20;;;1.02;;
4061;SDS011;2046;47.064;15.456;2022-10-22T16:42:52;1.95;;;1.10;;
4061;SDS011;2046;47.064;15.456;2022-10-22T16:45:18;0.85;;;0.80;;
4061;SDS011;2046;47.064;15.456;2022-10-22T16:47:45;1.15;;;1.10;;
4061;SDS011;2046;47.064;15.456;2022-10-22T16:50:12;1.20;;;1.10;;
4061;SDS011;2046;47.064;15.456;2022-10-22T16:52:38;1.77;;;1.02;;
4061;SDS011;2046;47.064;15.456;2022-10-22T16:55:05;1.60;;;1.17;;
4061;SDS011;2046;47.064;15.456;2022-10-22T16:57:31;1.88;;;0.80;;
4061;SDS011;2046;47.064;15.456;2022-10-22T16:59:59;0.70;;;0.70;;
4061;SDS011;2046;47.064;15.456;2022-10-22T17:02:25;0.90;;;0.90;;